createdAt,value
2023-04-29T00:00:32.145Z,58.47
2023-04-29T00:05:33.793Z,59.02
2023-04-29T00:10:35.453Z,58.76
2023-04-29T00:15:37.554Z,60.22
2023-04-29T00:20:39.570Z,60.11
2023-04-29T00:25:41.063Z,60.24
2023-04-29T00:30:42.589Z,59.46
2023-04-29T00:35:44.164Z,60.02
2023-04-29T00:40:46.036Z,59.34
2023-04-29T00:45:47.793Z,59.50
2023-04-29T00:50:50.803Z,59.50
2023-04-29T00:55:52.678Z,59.66
2023-04-29T01:00:56.540Z,60.54
2023-04-29T01:06:29.221Z,60.78
2023-04-29T01:11:39.906Z,60.80
2023-04-29T01:16:47.656Z,60.58
2023-04-29T01:21:49.526Z,60.44
2023-04-29T01:27:09.446Z,60.23
2023-04-29T01:32:17.567Z,60.08
2023-04-29T01:37:43.168Z,60.85
2023-04-29T01:42:47.140Z,60.46
2023-04-29T01:47:53.003Z,60.42
2023-04-29T01:52:54.637Z,60.30
2023-04-29T01:57:56.136Z,60.07
2023-04-29T02:02:57.925Z,61.11
2023-04-29T02:08:00.915Z,60.45
2023-04-29T02:13:02.806Z,60.64
2023-04-29T02:18:04.321Z,61.91
2023-04-29T02:23:05.963Z,61.44
2023-04-29T02:28:07.544Z,61.05
2023-04-29T02:33:09.165Z,61.72
2023-04-29T02:38:12.106Z,61.22
2023-04-29T02:43:13.839Z,61.68
2023-04-29T02:48:15.975Z,60.83
2023-04-29T02:53:17.567Z,61.08
2023-04-29T02:58:19.121Z,61.98
2023-04-29T03:03:20.837Z,62.02
2023-04-29T03:08:22.518Z,62.18
2023-04-29T03:13:24.099Z,61.59
2023-04-29T03:18:25.624Z,62.29
2023-04-29T03:23:28.041Z,62.25
2023-04-29T03:28:29.519Z,62.45
2023-04-29T03:33:31.132Z,62.03
2023-04-29T03:38:32.589Z,61.97
2023-04-29T03:43:34.328Z,61.56
2023-04-29T03:48:36.887Z,61.79
2023-04-29T03:53:39.066Z,61.75
2023-04-29T03:58:40.636Z,61.89
2023-04-29T04:03:43.505Z,61.39
2023-04-29T04:08:45.097Z,61.23
2023-04-29T04:13:46.624Z,61.26
2023-04-29T04:18:48.152Z,61.34
2023-04-29T04:23:49.674Z,60.98
2023-04-29T04:28:51.162Z,60.96
2023-04-29T04:33:52.701Z,60.58
2023-04-29T04:38:54.213Z,60.33
2023-04-29T04:43:55.729Z,60.13
2023-04-29T04:48:57.236Z,60.06
2023-04-29T04:53:58.710Z,59.61
2023-04-29T04:59:00.223Z,59.10
2023-04-29T05:04:02.969Z,58.87
2023-04-29T05:09:05.459Z,58.56
2023-04-29T05:14:07.055Z,58.26
2023-04-29T05:19:09.680Z,57.89
2023-04-29T05:24:11.535Z,57.35
2023-04-29T05:29:13.464Z,56.69
2023-04-29T05:34:15.131Z,56.46
2023-04-29T05:39:17.642Z,55.77
2023-04-29T05:44:19.141Z,55.97
2023-04-29T05:49:20.766Z,55.52
2023-04-29T05:54:22.302Z,55.55
2023-04-29T05:59:23.857Z,55.38
2023-04-29T06:04:26.664Z,54.49
2023-04-29T06:09:28.657Z,53.69
2023-04-29T06:14:30.685Z,54.31
2023-04-29T06:19:33.654Z,54.51
2023-04-29T06:24:35.127Z,54.23
2023-04-29T06:29:36.689Z,54.12
2023-04-29T06:34:39.489Z,54.02
2023-04-29T06:39:41.156Z,53.43
2023-04-29T06:44:42.769Z,53.16
2023-04-29T06:49:44.246Z,52.90
2023-04-29T06:54:45.780Z,52.87
2023-04-29T06:59:47.310Z,52.40
2023-04-29T07:04:52.845Z,51.98
2023-04-29T07:09:55.124Z,51.95
2023-04-29T07:14:58.176Z,51.59
2023-04-29T07:19:59.987Z,50.98
2023-04-29T07:25:01.491Z,50.61
2023-04-29T07:30:04.812Z,49.72
2023-04-29T07:35:06.694Z,49.55
2023-04-29T07:40:09.116Z,49.34
2023-04-29T07:45:10.866Z,49.35
2023-04-29T07:50:12.754Z,49.41
2023-04-29T07:55:14.282Z,49.10
2023-04-29T08:00:22.329Z,48.15
2023-04-29T08:05:24.775Z,48.10
2023-04-29T08:10:27.333Z,47.81
2023-04-29T08:15:29.868Z,47.80
2023-04-29T08:20:31.440Z,47.11
2023-04-29T08:25:33.332Z,47.19
2023-04-29T08:30:45.314Z,46.17
2023-04-29T08:35:46.856Z,46.63
2023-04-29T08:40:48.380Z,46.30
2023-04-29T08:45:50.348Z,45.93
2023-04-29T08:50:52.126Z,45.39
2023-04-29T08:55:55.331Z,45.97
2023-04-29T09:00:57.279Z,45.31
2023-04-29T09:06:04.163Z,45.80
2023-04-29T09:11:10.533Z,45.83
2023-04-29T09:16:13.271Z,45.59
2023-04-29T09:21:16.129Z,45.85
2023-04-29T09:26:18.065Z,46.12
2023-04-29T09:31:28.310Z,46.56
2023-04-29T09:36:50.994Z,46.33
2023-04-29T09:41:52.433Z,46.30
2023-04-29T09:46:57.512Z,46.69
2023-04-29T09:52:01.960Z,46.17
2023-04-29T09:57:07.273Z,46.06
2023-04-29T10:02:19.062Z,45.28
2023-04-29T10:07:21.600Z,45.58
2023-04-29T10:12:26.581Z,45.65
2023-04-29T10:17:41.543Z,45.83
2023-04-29T10:22:50.190Z,44.90
2023-04-29T10:27:54.844Z,44.41
2023-04-29T10:33:01.723Z,44.36
2023-04-29T10:38:13.821Z,43.92
2023-04-29T10:43:16.175Z,43.59
2023-04-29T10:48:21.028Z,43.61
2023-04-29T10:53:22.546Z,43.26
2023-04-29T10:58:47.249Z,43.00
2023-04-29T11:04:05.056Z,43.33
2023-04-29T11:09:14.569Z,42.92
2023-04-29T11:14:22.658Z,43.21
2023-04-29T11:19:27.170Z,43.23
2023-04-29T11:24:29.043Z,42.63
2023-04-29T11:29:33.514Z,43.67
2023-04-29T11:34:34.988Z,43.73
2023-04-29T11:39:36.642Z,42.90
2023-04-29T11:44:40.146Z,43.04
2023-04-29T11:49:42.844Z,41.82
2023-04-29T11:54:44.330Z,42.25
2023-04-29T11:59:47.264Z,40.84
2023-04-29T12:04:49.312Z,42.10
2023-04-29T12:09:51.603Z,42.00
2023-04-29T12:14:54.414Z,41.07
2023-04-29T12:19:57.279Z,41.53
2023-04-29T12:24:58.839Z,41.98
2023-04-29T12:30:00.381Z,41.86
2023-04-29T12:35:01.882Z,42.24
2023-04-29T12:40:04.244Z,42.05
2023-04-29T12:45:06.980Z,42.76
2023-04-29T12:50:09.480Z,42.22
2023-04-29T12:55:11.489Z,42.88
2023-04-29T13:00:20.951Z,41.96
2023-04-29T13:05:22.851Z,42.72
2023-04-29T13:10:24.369Z,42.29
2023-04-29T13:15:26.866Z,41.65
2023-04-29T13:20:28.634Z,41.52
2023-04-29T13:25:30.122Z,41.91
2023-04-29T13:30:35.987Z,41.42
2023-04-29T13:35:38.458Z,40.85
2023-04-29T13:40:45.455Z,40.71
2023-04-29T13:45:48.614Z,40.26
2023-04-29T13:51:23.459Z,40.66
2023-04-29T14:01:44.063Z,40.66
2023-04-29T14:06:38.277Z,40.28
2023-04-29T14:11:39.803Z,40.57
2023-04-29T14:16:41.641Z,40.65
2023-04-29T14:21:43.357Z,39.42
2023-04-29T14:26:44.997Z,40.16
2023-04-29T14:31:46.667Z,39.54
2023-04-29T14:36:48.289Z,40.33
2023-04-29T14:41:49.759Z,40.93
2023-04-29T14:46:51.460Z,40.43
2023-04-29T14:51:53.006Z,40.00
2023-04-29T14:56:54.548Z,40.11
2023-04-29T15:01:58.776Z,40.64
2023-04-29T15:07:00.287Z,40.34
2023-04-29T15:12:02.303Z,41.02
2023-04-29T15:17:04.026Z,41.56
2023-04-29T15:22:05.571Z,41.48
2023-04-29T15:27:07.291Z,40.57
2023-04-29T15:32:10.642Z,40.31
2023-04-29T15:37:12.477Z,39.99
2023-04-29T15:42:14.010Z,40.10
2023-04-29T15:47:15.817Z,40.33
2023-04-29T15:52:17.634Z,40.13
2023-04-29T15:57:19.181Z,40.25
2023-04-29T16:02:21.278Z,39.63
2023-04-29T16:07:23.073Z,39.80
2023-04-29T16:12:24.960Z,39.76
2023-04-29T16:17:26.659Z,40.52
2023-04-29T16:22:28.303Z,40.99
2023-04-29T16:27:32.479Z,41.80
2023-04-29T16:32:34.633Z,42.24
2023-04-29T16:37:36.684Z,42.90
2023-04-29T16:42:38.189Z,43.29
2023-04-29T16:47:42.271Z,43.46
2023-04-29T16:52:43.795Z,44.07
2023-04-29T16:57:45.291Z,44.87
2023-04-29T17:02:50.486Z,45.13
2023-04-29T17:07:52.709Z,45.14
2023-04-29T17:12:54.763Z,46.45
2023-04-29T17:17:56.528Z,46.03
2023-04-29T17:22:58.030Z,46.52
2023-04-29T17:27:59.766Z,46.46
2023-04-29T17:33:06.023Z,46.51
2023-04-29T17:38:08.011Z,47.38
2023-04-29T17:43:09.635Z,47.22
2023-04-29T17:48:11.374Z,47.83
2023-04-29T17:53:13.947Z,48.11
2023-04-29T17:58:15.437Z,48.48
2023-04-29T18:03:17.077Z,48.50
2023-04-29T18:08:18.757Z,48.50
2023-04-29T18:13:20.536Z,49.96
2023-04-29T18:18:22.044Z,49.62
2023-04-29T18:23:23.554Z,49.86
2023-04-29T18:28:25.899Z,50.07
2023-04-29T18:33:30.929Z,50.32
2023-04-29T18:38:32.762Z,50.69
2023-04-29T18:43:34.830Z,51.30
2023-04-29T18:48:38.407Z,51.30
2023-04-29T18:53:40.008Z,51.94
2023-04-29T18:58:41.856Z,51.96
2023-04-29T19:03:43.574Z,52.54
2023-04-29T19:08:45.110Z,53.05
2023-04-29T19:13:46.684Z,54.41
2023-04-29T19:18:48.228Z,54.61
2023-04-29T19:23:49.737Z,54.72
2023-04-29T19:28:51.227Z,54.11
2023-04-29T19:33:52.718Z,54.43
2023-04-29T19:38:54.295Z,55.30
2023-04-29T19:43:56.021Z,55.11
2023-04-29T19:48:57.624Z,54.94
2023-04-29T19:54:01.735Z,56.29
2023-04-29T19:59:03.225Z,56.42
2023-04-29T20:04:05.883Z,55.92
2023-04-29T20:09:09.380Z,55.87
2023-04-29T20:14:11.092Z,55.65
2023-04-29T20:19:12.616Z,56.14
2023-04-29T20:24:14.146Z,56.42
2023-04-29T20:29:15.919Z,56.05
2023-04-29T20:34:17.650Z,56.04
2023-04-29T20:39:19.858Z,56.57
2023-04-29T20:44:21.348Z,56.52
2023-04-29T20:49:22.962Z,56.75
2023-04-29T20:54:24.488Z,57.50
2023-04-29T20:59:26.403Z,57.93
2023-04-29T21:04:28.164Z,58.55
2023-04-29T21:09:30.080Z,58.24
2023-04-29T21:14:35.133Z,57.96
2023-04-29T21:19:37.726Z,58.95
2023-04-29T21:24:39.329Z,58.70
2023-04-29T21:29:41.091Z,58.96
2023-04-29T21:34:42.658Z,58.59
2023-04-29T21:39:44.139Z,59.29
2023-04-29T21:44:45.682Z,60.37
2023-04-29T21:49:47.812Z,59.62
2023-04-29T21:54:49.354Z,59.69
2023-04-29T21:59:51.200Z,60.25
2023-04-29T22:04:53.762Z,60.70
2023-04-29T22:09:55.456Z,61.03
2023-04-29T22:14:57.294Z,60.81
2023-04-29T22:19:58.784Z,60.48
2023-04-29T22:25:00.420Z,60.41
2023-04-29T22:30:03.176Z,61.59
2023-04-29T22:35:05.815Z,61.06
2023-04-29T22:40:08.266Z,61.74
2023-04-29T22:45:12.115Z,62.20
2023-04-29T22:50:13.762Z,61.90
2023-04-29T22:55:15.417Z,61.48
2023-04-29T23:00:17.369Z,61.67
2023-04-29T23:05:18.869Z,61.32
2023-04-29T23:10:20.504Z,61.93
2023-04-29T23:15:21.979Z,61.87
2023-04-29T23:20:24.109Z,62.18
2023-04-29T23:25:25.895Z,63.40
2023-04-29T23:30:27.384Z,63.16
2023-04-29T23:35:28.854Z,63.20
2023-04-29T23:40:31.779Z,63.48
2023-04-29T23:45:33.415Z,63.43
2023-04-29T23:50:34.989Z,63.82
2023-04-29T23:55:36.503Z,64.10
